Current Weather

Batten Intl

Racine, Wisconsin (KRAC)

Report from: Monday, March 4, 2024 5:39 PM CST
Current time: Monday, March 4, 2024 6:05 PM CST

Nearby weather – Weather history – Daily summaries
Weather forecast

Present weatherThunderstorms in the vicinity, mist
Temperature7.8°C (46.0°F)
Wind chill6.2°C (43.1°F)
Dew point6.1°C (43.0°F)
Winds 5 kts (2.6 m/s, 5.8 mph) North (350°)
Visibility2.5 mi. (4 km)
Clouds Scattered clouds 800 ft. (244 m)
Ceiling: Broken clouds 3,500 ft. (1,067 m)
Overcast 5,000 ft. (1,524 m)
Altimeter29.81 in.Hg (1009 mB)
Precipitiation0.01 in. (0 mm)
Precip. events Rain began 5:18 PM
Rain ended 5:31 PM
Relative humidity89 %
Density altitude-600 ft. (-183 m)
Remarks Fully automated report
Automated weather observing station with precipitation discriminator
Lightning observed
Distant west north
Flight conditions Instrument Meteorological Conditions
Raw dataKRAC 042339Z AUTO 35005KT 2 1/2SM VCTS BR SCT008 BKN035 OVC050 08/06 A2981 RMK AO2 LTG DSNT W-N RAB18E31 P0001 T00780061
An error has occurred. This application may no longer respond until reloaded. Reload 🗙